createdAt,value
2022-09-23T00:02:20.424Z,10.77
2022-09-23T00:05:24.067Z,8.18
2022-09-23T00:08:27.903Z,13.57
2022-09-23T00:11:34.400Z,10.30
2022-09-23T00:14:39.681Z,9.98
2022-09-23T00:17:43.302Z,7.22
2022-09-23T00:20:46.927Z,12.85
2022-09-23T00:23:51.103Z,10.52
2022-09-23T00:26:56.735Z,11.00
2022-09-23T00:30:00.337Z,9.38
2022-09-23T00:33:03.984Z,9.60
2022-09-23T00:36:10.458Z,7.97
2022-09-23T00:39:14.267Z,8.27
2022-09-23T00:42:21.807Z,10.23
2022-09-23T00:45:25.819Z,10.40
2022-09-23T00:51:38.282Z,8.30
2022-09-23T00:54:43.255Z,7.82
2022-09-23T00:57:49.226Z,10.07
2022-09-23T01:00:52.917Z,9.63
2022-09-23T01:03:58.457Z,10.02
2022-09-23T01:07:02.098Z,8.27
2022-09-23T01:10:07.021Z,14.68
2022-09-23T01:13:21.313Z,11.88
2022-09-23T01:20:01.763Z,7.75
2022-09-23T01:23:23.551Z,9.10
2022-09-23T01:26:56.039Z,9.80
2022-09-23T01:30:16.062Z,8.85
2022-09-23T01:33:31.642Z,10.48
2022-09-23T01:36:41.618Z,9.32
2022-09-23T01:39:53.364Z,8.90
2022-09-23T01:43:02.420Z,8.48
2022-09-23T01:46:11.001Z,14.73
2022-09-23T01:49:21.421Z,7.22
2022-09-23T01:52:29.614Z,7.65
2022-09-23T01:55:37.846Z,9.73
2022-09-23T01:58:46.563Z,8.20
2022-09-23T02:01:57.591Z,14.65
2022-09-23T02:05:09.056Z,8.68
2022-09-23T02:08:19.081Z,10.70
2022-09-23T02:11:22.942Z,11.55
2022-09-23T02:14:31.857Z,8.60
2022-09-23T02:17:43.002Z,10.02
2022-09-23T02:20:51.313Z,9.75
2022-09-23T02:24:00.025Z,8.55
2022-09-23T02:27:13.615Z,9.38
2022-09-23T02:30:20.443Z,8.18
2022-09-23T02:33:29.984Z,10.15
2022-09-23T02:36:45.362Z,10.48
2022-09-23T02:39:57.709Z,18.25
2022-09-23T02:43:08.743Z,9.43
2022-09-23T02:46:12.582Z,7.93
2022-09-23T02:49:21.266Z,9.73
2022-09-23T02:52:27.241Z,7.97
2022-09-23T02:55:32.128Z,13.18
2022-09-23T02:58:35.867Z,8.82
2022-09-23T03:01:48.038Z,9.52
2022-09-23T03:04:58.989Z,7.70
2022-09-23T03:08:18.993Z,8.60
2022-09-23T03:11:24.082Z,11.20
2022-09-23T03:14:34.665Z,7.03
2022-09-23T03:17:46.133Z,9.05
2022-09-23T03:20:53.971Z,7.63
2022-09-23T03:24:02.108Z,8.32
2022-09-23T03:27:12.871Z,9.98
2022-09-23T03:30:16.604Z,8.43
2022-09-23T03:33:28.691Z,13.20
2022-09-23T03:36:53.240Z,12.02
2022-09-23T03:40:06.460Z,11.88
2022-09-23T03:43:11.055Z,10.30
2022-09-23T03:46:17.758Z,6.90
2022-09-23T03:49:26.905Z,8.07
2022-09-23T03:52:30.589Z,7.88
2022-09-23T03:55:38.766Z,8.60
2022-09-23T03:58:43.427Z,8.27
2022-09-23T04:01:47.204Z,11.20
2022-09-23T04:07:54.517Z,6.60
2022-09-23T04:11:04.094Z,8.07
2022-09-23T04:14:07.714Z,7.88
2022-09-23T04:17:11.618Z,7.63
2022-09-23T04:20:18.404Z,7.25
2022-09-23T04:23:22.026Z,8.55
2022-09-23T04:26:27.595Z,8.00
2022-09-23T04:29:31.260Z,8.32
2022-09-23T04:32:34.906Z,11.48
2022-09-23T04:35:40.292Z,11.40
2022-09-23T04:38:45.892Z,8.10
2022-09-23T04:41:51.428Z,7.93
2022-09-23T04:44:55.005Z,8.05
2022-09-23T04:47:59.089Z,10.40
2022-09-23T04:54:09.623Z,11.13
2022-09-23T04:57:15.764Z,9.45
2022-09-23T05:00:19.527Z,12.20
2022-09-23T05:03:23.156Z,13.23
2022-09-23T05:06:27.241Z,10.07
2022-09-23T05:12:36.197Z,9.82
2022-09-23T05:15:39.821Z,8.02
2022-09-23T05:18:44.682Z,8.88
2022-09-23T05:21:48.271Z,6.15
2022-09-23T05:24:51.863Z,9.48
2022-09-23T05:27:57.406Z,12.45
2022-09-23T05:31:04.756Z,8.98
2022-09-23T05:34:08.703Z,8.23
2022-09-23T05:37:12.383Z,16.83
2022-09-23T05:40:16.133Z,8.88
2022-09-23T05:43:21.669Z,13.68
2022-09-23T05:46:27.222Z,12.20
2022-09-23T05:49:55.163Z,9.40
2022-09-23T05:52:54.467Z,12.80
2022-09-23T05:55:58.652Z,7.60
2022-09-23T05:59:05.247Z,13.13
2022-09-23T06:02:10.442Z,7.13
2022-09-23T06:05:14.505Z,11.23
2022-09-23T06:08:18.233Z,8.45
2022-09-23T06:11:21.972Z,10.27
2022-09-23T06:14:28.179Z,11.48
2022-09-23T06:17:31.826Z,8.30
2022-09-23T06:20:36.080Z,10.32
2022-09-23T06:23:41.759Z,8.48
2022-09-23T06:26:45.700Z,9.35
2022-09-23T06:29:51.866Z,16.60
2022-09-23T06:32:57.322Z,22.90
2022-09-23T06:36:02.393Z,15.40
2022-09-23T06:39:06.485Z,15.52
2022-09-23T06:45:16.322Z,14.65
2022-09-23T06:48:19.946Z,10.43
2022-09-23T06:51:23.639Z,12.52
2022-09-23T06:54:28.355Z,16.42
2022-09-23T06:57:32.498Z,13.85
2022-09-23T07:00:38.385Z,13.35
2022-09-23T07:03:42.037Z,16.17
2022-09-23T07:06:45.714Z,10.00
2022-09-23T07:09:49.554Z,14.82
2022-09-23T07:12:53.127Z,15.13
2022-09-23T07:16:01.227Z,11.20
2022-09-23T07:19:05.046Z,13.40
2022-09-23T07:25:12.732Z,16.95
2022-09-23T07:28:16.321Z,10.93
2022-09-23T07:31:33.797Z,12.73
2022-09-23T07:34:40.626Z,14.50
2022-09-23T07:37:44.411Z,15.02
2022-09-23T07:40:48.511Z,15.50
2022-09-23T07:43:54.701Z,16.00
2022-09-23T07:47:01.033Z,13.27
2022-09-23T07:50:04.997Z,18.20
2022-09-23T07:56:12.447Z,15.05
2022-09-23T08:02:23.190Z,14.93
2022-09-23T08:05:27.676Z,15.48
2022-09-23T08:08:31.885Z,12.50
2022-09-23T08:11:35.793Z,10.57
2022-09-23T08:14:39.820Z,15.75
2022-09-23T08:20:49.266Z,11.65
2022-09-23T08:23:52.939Z,10.65
2022-09-23T08:26:56.653Z,10.00
2022-09-23T08:30:00.621Z,10.35
2022-09-23T08:33:06.314Z,14.25
2022-09-23T08:36:10.033Z,11.13
2022-09-23T08:39:16.396Z,10.25
2022-09-23T08:42:27.843Z,8.82
2022-09-23T08:45:31.840Z,9.48
2022-09-23T08:51:46.898Z,11.68
2022-09-23T08:54:55.175Z,10.13
2022-09-23T08:58:24.880Z,14.30
2022-09-23T09:01:35.941Z,8.75
2022-09-23T09:04:45.883Z,12.40
2022-09-23T09:07:50.358Z,11.68
2022-09-23T09:10:57.549Z,17.17
2022-09-23T09:14:07.071Z,13.32
2022-09-23T09:17:19.451Z,11.48
2022-09-23T09:20:31.905Z,10.77
2022-09-23T09:23:40.243Z,10.82
2022-09-23T09:26:43.867Z,12.85
2022-09-23T09:29:53.322Z,11.48
2022-09-23T09:33:02.105Z,9.82
2022-09-23T09:36:22.924Z,9.63
2022-09-23T09:39:28.016Z,8.63
2022-09-23T09:42:40.776Z,10.57
2022-09-23T09:45:58.552Z,9.77
2022-09-23T09:49:05.145Z,9.75
2022-09-23T09:52:24.815Z,11.77
2022-09-23T09:55:30.472Z,10.05
2022-09-23T09:58:44.040Z,15.35
2022-09-23T10:01:47.810Z,9.85
2022-09-23T10:05:04.392Z,8.82
2022-09-23T10:08:26.149Z,9.15
2022-09-23T10:11:30.709Z,6.43
2022-09-23T10:14:35.719Z,12.30
2022-09-23T10:17:41.319Z,8.20
2022-09-23T10:20:45.539Z,11.77
2022-09-23T10:23:54.049Z,8.60
2022-09-23T10:27:01.878Z,7.57
2022-09-23T10:30:08.441Z,8.43
2022-09-23T10:33:29.126Z,12.73
2022-09-23T10:36:34.314Z,17.15
2022-09-23T10:39:53.683Z,9.60
2022-09-23T10:43:25.650Z,10.10
2022-09-23T10:46:40.897Z,8.60
2022-09-23T10:50:26.398Z,18.00
2022-09-23T10:53:41.446Z,8.18
2022-09-23T10:56:50.395Z,8.80
2022-09-23T11:00:02.549Z,11.57
2022-09-23T11:03:48.199Z,11.20
2022-09-23T11:07:06.662Z,10.77
2022-09-23T11:10:50.511Z,14.30
2022-09-23T11:14:16.383Z,12.43
2022-09-23T11:17:49.458Z,11.98
2022-09-23T11:21:07.653Z,11.48
2022-09-23T11:24:27.400Z,9.05
2022-09-23T11:27:47.287Z,9.45
2022-09-23T11:31:09.659Z,10.10
2022-09-23T11:34:30.389Z,6.10
2022-09-23T11:37:37.575Z,7.35
2022-09-23T11:40:46.212Z,7.72
2022-09-23T11:43:54.122Z,13.23
2022-09-23T11:47:04.743Z,8.88
2022-09-23T11:50:19.275Z,8.45
2022-09-23T11:53:27.870Z,8.35
2022-09-23T11:56:40.189Z,9.35
2022-09-23T12:03:06.249Z,8.80
2022-09-23T12:06:16.472Z,6.65
2022-09-23T12:09:47.100Z,11.88
2022-09-23T12:12:57.119Z,6.72
2022-09-23T12:16:24.240Z,10.40
2022-09-23T12:19:51.098Z,5.53
2022-09-23T12:23:04.154Z,8.52
2022-09-23T12:26:13.946Z,8.85
2022-09-23T12:29:17.873Z,7.63
2022-09-23T12:35:34.977Z,6.53
2022-09-23T12:38:42.206Z,7.10
2022-09-23T12:41:51.158Z,6.97
2022-09-23T12:45:34.310Z,7.57
2022-09-23T12:49:01.705Z,8.77
2022-09-23T12:52:24.485Z,7.22
2022-09-23T12:55:50.982Z,7.78
2022-09-23T12:59:02.259Z,11.98
2022-09-23T13:02:38.529Z,8.80
2022-09-23T13:05:59.891Z,12.90
2022-09-23T13:09:03.644Z,9.10
2022-09-23T13:12:10.912Z,8.30
2022-09-23T13:15:20.546Z,9.93
2022-09-23T13:18:53.557Z,8.73
2022-09-23T13:22:07.089Z,7.28
2022-09-23T13:25:20.561Z,12.75
2022-09-23T13:28:36.468Z,8.00
2022-09-23T13:31:40.275Z,7.43
2022-09-23T13:34:48.650Z,6.97
2022-09-23T13:37:52.462Z,8.65
2022-09-23T13:40:58.363Z,10.23
2022-09-23T13:44:02.352Z,5.47
2022-09-23T13:50:17.830Z,10.85
2022-09-23T13:53:25.678Z,9.68
2022-09-23T13:56:31.665Z,10.52
2022-09-23T13:59:39.562Z,12.75
2022-09-23T14:02:44.759Z,9.55
2022-09-23T14:05:51.030Z,12.13
2022-09-23T14:08:55.874Z,4.18
2022-09-23T14:12:01.480Z,7.53
2022-09-23T14:15:06.644Z,6.28
2022-09-23T14:18:10.445Z,13.32
2022-09-23T14:21:34.523Z,8.90
2022-09-23T14:24:39.200Z,9.70
2022-09-23T14:27:44.027Z,8.02
2022-09-23T14:30:48.791Z,12.10
2022-09-23T14:33:52.589Z,6.63
2022-09-23T14:37:23.009Z,7.03
2022-09-23T14:40:29.984Z,7.85
2022-09-23T14:43:33.723Z,9.98
2022-09-23T14:46:39.562Z,9.50
2022-09-23T14:50:09.892Z,6.72
2022-09-23T14:53:39.687Z,8.23
2022-09-23T14:56:43.926Z,7.03
2022-09-23T14:59:52.914Z,5.97
2022-09-23T15:03:01.575Z,6.30
2022-09-23T15:06:08.842Z,6.18
2022-09-23T15:09:20.689Z,7.63
2022-09-23T15:12:24.318Z,6.70
2022-09-23T15:15:29.583Z,9.07
2022-09-23T15:18:36.129Z,10.35
2022-09-23T15:21:42.263Z,8.85
2022-09-23T15:24:47.978Z,8.82
2022-09-23T15:28:03.594Z,7.95
2022-09-23T15:31:08.537Z,7.60
2022-09-23T15:34:12.713Z,8.48
2022-09-23T15:37:16.806Z,4.63
2022-09-23T15:40:24.432Z,15.40
2022-09-23T15:43:28.142Z,6.78
2022-09-23T15:46:33.059Z,7.55
2022-09-23T15:49:38.951Z,10.48
2022-09-23T15:52:44.535Z,10.15
2022-09-23T15:55:50.977Z,10.05
2022-09-23T15:58:54.692Z,5.93
2022-09-23T16:02:00.333Z,11.80
2022-09-23T16:05:07.190Z,14.48
2022-09-23T16:08:11.777Z,6.90
2022-09-23T16:11:20.427Z,10.20
2022-09-23T16:14:24.506Z,7.22
2022-09-23T16:17:28.515Z,7.28
2022-09-23T16:23:40.230Z,10.02
2022-09-23T16:26:46.839Z,9.07
2022-09-23T16:29:50.475Z,8.30
2022-09-23T16:32:54.420Z,10.07
2022-09-23T16:39:07.187Z,8.80
2022-09-23T16:42:12.829Z,10.70
2022-09-23T16:45:17.552Z,9.45
2022-09-23T16:48:21.508Z,7.80
2022-09-23T16:54:29.751Z,15.23
2022-09-23T16:57:36.457Z,11.68
2022-09-23T17:00:53.490Z,11.38
2022-09-23T17:03:57.157Z,10.10
2022-09-23T17:07:01.325Z,8.73
2022-09-23T17:10:05.459Z,7.57
2022-09-23T17:13:11.843Z,9.68
2022-09-23T17:16:25.336Z,11.95
2022-09-23T17:19:29.111Z,13.57
2022-09-23T17:22:33.138Z,9.60
2022-09-23T17:28:42.111Z,9.95
2022-09-23T17:31:45.874Z,19.98
2022-09-23T17:34:49.554Z,11.32
2022-09-23T17:37:53.762Z,14.23
2022-09-23T17:41:00.493Z,11.68
2022-09-23T17:44:07.995Z,10.10
2022-09-23T17:47:11.626Z,14.07
2022-09-23T17:50:15.359Z,14.30
2022-09-23T17:53:18.951Z,9.82
2022-09-23T17:56:24.289Z,10.38
2022-09-23T17:59:30.138Z,11.90
2022-09-23T18:02:33.823Z,13.80
2022-09-23T18:05:37.454Z,14.57
2022-09-23T18:08:42.294Z,12.40
2022-09-23T18:11:48.616Z,14.52
2022-09-23T18:14:54.154Z,11.90
2022-09-23T18:17:57.775Z,15.93
2022-09-23T18:21:02.347Z,11.93
2022-09-23T18:24:30.856Z,17.77
2022-09-23T18:27:30.830Z,15.30
2022-09-23T18:30:36.379Z,16.92
2022-09-23T18:33:40.054Z,15.32
2022-09-23T18:36:44.015Z,18.67
2022-09-23T18:42:51.622Z,16.95
2022-09-23T18:46:01.545Z,17.33
2022-09-23T18:49:18.810Z,18.13
2022-09-23T18:52:23.657Z,18.60
2022-09-23T18:55:27.291Z,14.50
2022-09-23T18:58:31.799Z,21.17
2022-09-23T19:01:37.704Z,19.15
2022-09-23T19:04:41.406Z,18.92
2022-09-23T19:07:45.025Z,16.90
2022-09-23T19:10:57.070Z,16.83
2022-09-23T19:14:01.743Z,19.60
2022-09-23T19:17:08.109Z,21.08
2022-09-23T19:20:12.102Z,16.02
2022-09-23T19:26:21.190Z,17.70
2022-09-23T19:29:24.803Z,18.83
2022-09-23T19:32:34.110Z,17.65
2022-09-23T19:35:38.571Z,20.88
2022-09-23T19:38:43.143Z,20.40
2022-09-23T19:41:47.793Z,15.05
2022-09-23T19:44:52.430Z,14.30
2022-09-23T19:47:57.970Z,19.48
2022-09-23T19:51:02.052Z,16.13
2022-09-23T19:57:10.390Z,16.92
2022-09-23T20:00:15.857Z,15.27
2022-09-23T20:03:21.404Z,14.40
2022-09-23T20:06:25.366Z,18.08
2022-09-23T20:12:34.498Z,18.92
2022-09-23T20:15:38.749Z,19.88
2022-09-23T20:18:45.358Z,16.30
2022-09-23T20:22:09.212Z,14.38
2022-09-23T20:25:14.471Z,21.23
2022-09-23T20:28:16.278Z,14.68
2022-09-23T20:31:21.463Z,28.45
2022-09-23T20:34:29.046Z,18.65
2022-09-23T20:37:32.765Z,14.07
2022-09-23T20:40:37.794Z,15.35
2022-09-23T20:43:41.415Z,18.77
2022-09-23T20:46:48.473Z,17.38
2022-09-23T20:49:54.450Z,15.48
2022-09-23T20:52:58.114Z,13.25
2022-09-23T20:56:02.206Z,19.50
2022-09-23T21:02:11.230Z,17.33
2022-09-23T21:05:17.363Z,15.38
2022-09-23T21:08:21.030Z,19.60
2022-09-23T21:11:24.983Z,17.98
2022-09-23T21:17:32.955Z,16.00
2022-09-23T21:20:38.522Z,16.52
2022-09-23T21:23:43.555Z,20.08
2022-09-23T21:26:47.202Z,20.45
2022-09-23T21:29:50.840Z,20.58
2022-09-23T21:32:54.423Z,25.27
2022-09-23T21:36:02.837Z,22.92
2022-09-23T21:39:07.235Z,20.55
2022-09-23T21:42:11.433Z,20.38
2022-09-23T21:45:15.522Z,22.77
2022-09-23T21:51:26.218Z,21.23
2022-09-23T21:54:31.393Z,26.90
2022-09-23T21:57:35.030Z,25.77
2022-09-23T22:00:40.723Z,29.05
2022-09-23T22:03:45.313Z,23.98
2022-09-23T22:06:50.894Z,26.80
2022-09-23T22:09:54.495Z,25.02
2022-09-23T22:12:58.339Z,23.05
2022-09-23T22:16:04.561Z,24.80
2022-09-23T22:19:08.266Z,24.40
2022-09-23T22:22:15.748Z,27.65
2022-09-23T22:25:19.779Z,25.83
2022-09-23T22:31:53.364Z,30.42
2022-09-23T22:34:57.158Z,26.52
2022-09-23T22:38:02.714Z,27.83
2022-09-23T22:41:06.317Z,28.08
2022-09-23T22:44:10.253Z,30.05
2022-09-23T22:47:14.001Z,29.40
2022-09-23T22:50:17.801Z,27.13
2022-09-23T22:53:23.303Z,29.20
2022-09-23T22:56:26.934Z,29.17
2022-09-23T22:59:30.561Z,35.35
2022-09-23T23:02:34.388Z,31.67
2022-09-23T23:05:37.954Z,30.25
2022-09-23T23:08:43.491Z,30.58
2022-09-23T23:11:47.421Z,29.02
2022-09-23T23:17:58.545Z,30.45
2022-09-23T23:21:10.266Z,32.17
2022-09-23T23:24:19.326Z,33.03
2022-09-23T23:27:22.989Z,27.58
2022-09-23T23:30:26.782Z,36.90
2022-09-23T23:33:30.404Z,32.33
2022-09-23T23:36:34.006Z,31.20
2022-09-23T23:39:39.547Z,36.10
2022-09-23T23:42:43.136Z,32.28
2022-09-23T23:45:48.163Z,29.08
2022-09-23T23:48:51.766Z,33.63
2022-09-23T23:51:55.426Z,30.58
2022-09-23T23:55:01.000Z,32.65
2022-09-23T23:58:04.602Z,39.50
